Stolt Surf — ZCSR3 — position and weather

sailwx.info

Track history (hours):
 
Tides and Currents Weather Stations Pressure Air Temp Water Temp Dewpoint Dewpoint Depression Visibility Wind Speed Wind Dir Waves Ship Positions

Stolt Surf

Last reported at 2016-Jun-25 21:11 UTC. Time now 2016-Jun-27 07:48 UTC.
Position N 28°58' W 094°44'.

Length 163 m; draft 6.7 m.

Type: Ship. MMSI: 319545000.

Date/timePositionNaut miles runAvg speedWind from/ knotsBaromVisibWave heightAir tempDewpointWater temp
2016-Jun-25 21:11N 28°58' W 094°44'24 7.9
2016-Jun-25 18:10N 29°21' W 094°47'812.1
2016-Jun-25 17:33N 29°28' W 094°51'1212.3
2016-Jun-25 16:33N 29°38' W 094°58'9 8.8
2016-Jun-25 15:33N 29°45' W 095°04'3 0.2
2016-Jun-25 00:33N 29°44' W 095°08'2 0.1
2016-Jun-24 08:29N 29°45' W 095°10'2 2.1
2016-Jun-24 07:33N 29°44' W 095°08'9 3.1
2016-Jun-24 04:28N 29°37' W 095°01'0 0.0
2016-Jun-24 03:22N 29°37' W 095°01'0 0.0
2016-Jun-24 02:19N 29°37' W 095°01'0 0.0
2016-Jun-24 01:25N 29°37' W 095°01'0 0.0
2016-Jun-24 00:31N 29°37' W 095°01'0 0.0
2016-Jun-23 23:25N 29°37' W 095°01'0 0.0
2016-Jun-23 22:28N 29°37' W 095°01'0 0.0
2016-Jun-23 21:28N 29°37' W 095°01'0 0.0
2016-Jun-23 20:13N 29°37' W 095°01'0 0.0
2016-Jun-23 19:25N 29°37' W 095°01'0 0.0
2016-Jun-23 18:04N 29°37' W 095°01'0 0.0
2016-Jun-23 17:31N 29°37' W 095°01'0 0.0
2016-Jun-23 16:13N 29°37' W 095°01'0 0.0
2016-Jun-23 15:25N 29°37' W 095°01'0 0.0
2016-Jun-23 14:28N 29°37' W 095°01'0 0.0
2016-Jun-23 13:33N 29°37' W 095°01'1 0.6
2016-Jun-23 12:33N 29°37' W 095°01'9 9.2
2016-Jun-23 11:33N 29°31' W 094°53'20 1.4
2016-Jun-22 21:25N 29°18' W 094°34'  
2016-Jun-19 17:33N 29°30' W 094°52'1010.3
2016-Jun-19 16:33N 29°37' W 095°01'0 0.3
2016-Jun-19 15:10N 29°37' W 095°01'0 0.0
2016-Jun-19 14:31N 29°37' W 095°01'0 0.0
2016-Jun-19 13:13N 29°37' W 095°01'0 0.0
2016-Jun-19 12:16N 29°37' W 095°01'0 0.0
2016-Jun-19 10:28N 29°37' W 095°01'0 0.0
2016-Jun-19 09:19N 29°37' W 095°01'0 0.0
2016-Jun-19 08:31N 29°37' W 095°01'0 0.0
2016-Jun-19 07:19N 29°37' W 095°01'0 0.0
2016-Jun-19 05:28N 29°37' W 095°01'0 0.0
2016-Jun-19 04:28N 29°37' W 095°01'0 0.0
2016-Jun-19 03:22N 29°37' W 095°01'0 0.0
2016-Jun-19 02:28N 29°37' W 095°01'0 0.0
2016-Jun-19 01:31N 29°37' W 095°01'0 0.0
2016-Jun-19 00:31N 29°37' W 095°01'0 0.0
2016-Jun-18 23:25N 29°37' W 095°01'0 0.0
2016-Jun-18 21:28N 29°37' W 095°01'0 0.0
2016-Jun-18 20:33N 29°37' W 095°01'6 5.6
2016-Jun-18 19:33N 29°34' W 094°55'24 1.3
2016-Jun-18 01:12N 29°19' W 094°35'13 1.1
2016-Jun-17 13:33N 29°23' W 094°48'1212.0
2016-Jun-17 12:33N 29°33' W 094°55'1010.1
2016-Jun-17 11:33N 29°42' W 095°01'6 5.8
2016-Jun-17 10:33N 29°44' W 095°07'1 0.1
2016-Jun-16 23:27N 29°44' W 095°08'  
Track history (hours):
 
Tides and Currents Weather Stations Pressure Air Temp Water Temp Dewpoint Dewpoint Depression Visibility Wind Speed Wind Dir Waves Ship Positions

Stolt Surf

Last reported at 2016-Jun-25 21:11 UTC. Time now 2016-Jun-27 07:48 UTC.
Position N 28°58' W 094°44'.

Length 163 m; draft 6.7 m.

Type: Ship. MMSI: 319545000.

Date/timePositionNaut miles runAvg speedWind from/ knotsBaromVisibWave heightAir tempDewpointWater temp
2016-Jun-25 21:11N 28°58' W 094°44'24 7.9
2016-Jun-25 18:10N 29°21' W 094°47'812.1
2016-Jun-25 17:33N 29°28' W 094°51'1212.3
2016-Jun-25 16:33N 29°38' W 094°58'9 8.8
2016-Jun-25 15:33N 29°45' W 095°04'3 0.2
2016-Jun-25 00:33N 29°44' W 095°08'2 0.1
2016-Jun-24 08:29N 29°45' W 095°10'2 2.1
2016-Jun-24 07:33N 29°44' W 095°08'9 3.1
2016-Jun-24 04:28N 29°37' W 095°01'0 0.0
2016-Jun-24 03:22N 29°37' W 095°01'0 0.0
2016-Jun-24 02:19N 29°37' W 095°01'0 0.0
2016-Jun-24 01:25N 29°37' W 095°01'0 0.0
2016-Jun-24 00:31N 29°37' W 095°01'0 0.0
2016-Jun-23 23:25N 29°37' W 095°01'0 0.0
2016-Jun-23 22:28N 29°37' W 095°01'0 0.0
2016-Jun-23 21:28N 29°37' W 095°01'0 0.0
2016-Jun-23 20:13N 29°37' W 095°01'0 0.0
2016-Jun-23 19:25N 29°37' W 095°01'0 0.0
2016-Jun-23 18:04N 29°37' W 095°01'0 0.0
2016-Jun-23 17:31N 29°37' W 095°01'0 0.0
2016-Jun-23 16:13N 29°37' W 095°01'0 0.0
2016-Jun-23 15:25N 29°37' W 095°01'0 0.0
2016-Jun-23 14:28N 29°37' W 095°01'0 0.0
2016-Jun-23 13:33N 29°37' W 095°01'1 0.6
2016-Jun-23 12:33N 29°37' W 095°01'9 9.2
2016-Jun-23 11:33N 29°31' W 094°53'20 1.4
2016-Jun-22 21:25N 29°18' W 094°34'  
2016-Jun-19 17:33N 29°30' W 094°52'1010.3
2016-Jun-19 16:33N 29°37' W 095°01'0 0.3
2016-Jun-19 15:10N 29°37' W 095°01'0 0.0
2016-Jun-19 14:31N 29°37' W 095°01'0 0.0
2016-Jun-19 13:13N 29°37' W 095°01'0 0.0
2016-Jun-19 12:16N 29°37' W 095°01'0 0.0
2016-Jun-19 10:28N 29°37' W 095°01'0 0.0
2016-Jun-19 09:19N 29°37' W 095°01'0 0.0
2016-Jun-19 08:31N 29°37' W 095°01'0 0.0
2016-Jun-19 07:19N 29°37' W 095°01'0 0.0
2016-Jun-19 05:28N 29°37' W 095°01'0 0.0
2016-Jun-19 04:28N 29°37' W 095°01'0 0.0
2016-Jun-19 03:22N 29°37' W 095°01'0 0.0
2016-Jun-19 02:28N 29°37' W 095°01'0 0.0
2016-Jun-19 01:31N 29°37' W 095°01'0 0.0
2016-Jun-19 00:31N 29°37' W 095°01'0 0.0
2016-Jun-18 23:25N 29°37' W 095°01'0 0.0
2016-Jun-18 21:28N 29°37' W 095°01'0 0.0
2016-Jun-18 20:33N 29°37' W 095°01'6 5.6
2016-Jun-18 19:33N 29°34' W 094°55'24 1.3
2016-Jun-18 01:12N 29°19' W 094°35'13 1.1
2016-Jun-17 13:33N 29°23' W 094°48'1212.0
2016-Jun-17 12:33N 29°33' W 094°55'1010.1
2016-Jun-17 11:33N 29°42' W 095°01'6 5.8
2016-Jun-17 10:33N 29°44' W 095°07'1 0.1
2016-Jun-16 23:27N 29°44' W 095°08'  

Dump ship's entire track history